createdAt,value
2022-07-26T00:01:31.910Z,1.17
2022-07-26T00:04:53.800Z,1.35
2022-07-26T00:08:15.146Z,0.85
2022-07-26T00:11:38.286Z,1.40
2022-07-26T00:15:00.595Z,1.45
2022-07-26T00:18:22.564Z,1.83
2022-07-26T00:21:43.810Z,1.45
2022-07-26T00:25:09.614Z,1.88
2022-07-26T00:28:32.566Z,1.70
2022-07-26T00:31:53.885Z,1.42
2022-07-26T00:35:15.719Z,1.40
2022-07-26T00:38:38.299Z,1.50
2022-07-26T00:41:59.655Z,1.20
2022-07-26T00:45:22.299Z,1.40
2022-07-26T00:48:43.401Z,1.10
2022-07-26T00:52:06.540Z,1.65
2022-07-26T00:55:28.651Z,1.35
2022-07-26T00:58:50.260Z,1.38
2022-07-26T01:02:13.310Z,1.65
2022-07-26T01:05:37.045Z,1.30
2022-07-26T01:08:58.094Z,1.60
2022-07-26T01:12:19.195Z,2.38
2022-07-26T01:15:40.217Z,3.05
2022-07-26T01:19:03.421Z,2.75
2022-07-26T01:22:25.976Z,2.70
2022-07-26T01:25:48.584Z,2.38
2022-07-26T01:29:10.635Z,1.70
2022-07-26T01:32:32.116Z,1.97
2022-07-26T01:35:53.834Z,2.15
2022-07-26T01:39:17.629Z,1.95
2022-07-26T01:42:40.914Z,1.77
2022-07-26T01:46:02.979Z,2.10
2022-07-26T01:49:24.302Z,1.83
2022-07-26T01:52:46.183Z,2.35
2022-07-26T01:56:09.077Z,2.42
2022-07-26T01:59:30.079Z,1.95
2022-07-26T02:02:54.634Z,1.50
2022-07-26T02:06:16.111Z,1.90
2022-07-26T02:09:38.157Z,1.27
2022-07-26T02:13:02.439Z,1.45
2022-07-26T02:16:24.941Z,1.33
2022-07-26T02:19:46.455Z,1.63
2022-07-26T02:23:07.827Z,1.27
2022-07-26T02:26:29.194Z,1.30
2022-07-26T02:29:51.858Z,1.03
2022-07-26T02:33:13.113Z,0.80
2022-07-26T02:36:34.921Z,1.03
2022-07-26T02:39:56.404Z,0.83
2022-07-26T02:43:17.549Z,1.07
2022-07-26T02:46:40.511Z,1.30
2022-07-26T02:50:01.759Z,0.80
2022-07-26T02:53:22.776Z,0.87
2022-07-26T02:56:44.208Z,0.93
2022-07-26T03:00:07.290Z,1.00
2022-07-26T03:03:29.884Z,0.87
2022-07-26T03:06:52.216Z,0.60
2022-07-26T03:10:13.303Z,1.03
2022-07-26T03:13:35.004Z,1.20
2022-07-26T03:16:56.319Z,0.80
2022-07-26T03:20:18.833Z,0.90
2022-07-26T03:23:40.270Z,0.77
2022-07-26T03:27:02.127Z,0.77
2022-07-26T03:30:24.735Z,0.60
2022-07-26T03:33:47.707Z,1.00
2022-07-26T03:37:10.228Z,0.63
2022-07-26T03:40:31.725Z,0.70
2022-07-26T03:43:52.741Z,0.80
2022-07-26T03:47:15.191Z,0.60
2022-07-26T03:50:36.886Z,0.83
2022-07-26T03:53:59.801Z,0.80
2022-07-26T03:57:21.098Z,0.93
2022-07-26T04:00:42.293Z,1.13
2022-07-26T04:04:04.948Z,0.53
2022-07-26T04:07:27.341Z,0.83
2022-07-26T04:10:51.203Z,0.90
2022-07-26T04:14:13.310Z,0.63
2022-07-26T04:17:38.616Z,0.80
2022-07-26T04:21:00.034Z,0.73
2022-07-26T04:24:21.356Z,0.70
2022-07-26T04:27:48.789Z,0.63
2022-07-26T04:31:11.053Z,1.20
2022-07-26T04:34:32.925Z,1.10
2022-07-26T04:37:54.439Z,0.80
2022-07-26T04:41:15.915Z,1.07
2022-07-26T04:44:38.973Z,1.23
2022-07-26T04:48:00.074Z,3.47
2022-07-26T04:51:22.022Z,1.50
2022-07-26T04:54:43.584Z,1.27
2022-07-26T04:58:05.349Z,1.00
2022-07-26T05:01:28.465Z,1.10
2022-07-26T05:04:49.961Z,0.70
2022-07-26T05:08:11.815Z,0.70
2022-07-26T05:11:33.562Z,1.23
2022-07-26T05:14:54.582Z,0.90
2022-07-26T05:18:17.178Z,1.20
2022-07-26T05:21:38.826Z,1.07
2022-07-26T05:25:00.645Z,1.57
2022-07-26T05:28:22.493Z,0.80
2022-07-26T05:31:43.699Z,0.90
2022-07-26T05:35:07.437Z,0.80
2022-07-26T05:38:29.039Z,1.17
2022-07-26T05:41:50.835Z,1.27
2022-07-26T05:45:12.362Z,1.40
2022-07-26T05:48:34.045Z,1.70
2022-07-26T05:52:01.092Z,1.03
2022-07-26T05:55:23.060Z,1.60
2022-07-26T05:58:44.181Z,1.40
2022-07-26T06:02:05.541Z,1.97
2022-07-26T06:05:27.052Z,1.53
2022-07-26T06:08:51.479Z,1.97
2022-07-26T06:12:12.391Z,1.00
2022-07-26T06:15:33.577Z,1.75
2022-07-26T06:18:55.253Z,1.73
2022-07-26T06:22:16.354Z,1.50
2022-07-26T06:25:40.791Z,1.65
2022-07-26T06:29:02.147Z,2.65
2022-07-26T06:32:23.696Z,1.42
2022-07-26T06:35:44.716Z,1.98
2022-07-26T06:39:06.275Z,1.73
2022-07-26T06:42:29.066Z,1.65
2022-07-26T06:45:50.834Z,2.30
2022-07-26T06:49:12.449Z,1.98
2022-07-26T06:52:33.816Z,1.73
2022-07-26T06:55:55.554Z,1.65
2022-07-26T06:59:17.994Z,1.45
2022-07-26T07:02:40.103Z,1.97
2022-07-26T07:06:01.299Z,1.70
2022-07-26T07:09:24.071Z,2.50
2022-07-26T07:12:46.882Z,2.30
2022-07-26T07:16:10.063Z,2.23
2022-07-26T07:19:31.763Z,2.17
2022-07-26T07:22:52.778Z,1.73
2022-07-26T07:26:13.797Z,1.90
2022-07-26T07:29:35.276Z,2.17
2022-07-26T07:32:58.123Z,1.73
2022-07-26T07:36:20.702Z,1.67
2022-07-26T07:39:41.891Z,1.92
2022-07-26T07:43:04.691Z,1.63
2022-07-26T07:46:26.441Z,4.00
2022-07-26T07:49:49.001Z,2.17
2022-07-26T07:53:10.140Z,2.17
2022-07-26T07:56:32.363Z,2.20
2022-07-26T07:59:53.628Z,2.05
2022-07-26T08:03:18.659Z,1.40
2022-07-26T08:06:43.209Z,1.30
2022-07-26T08:10:12.858Z,1.50
2022-07-26T08:13:36.052Z,1.25
2022-07-26T08:16:59.013Z,2.15
2022-07-26T08:20:23.706Z,1.40
2022-07-26T08:23:48.176Z,1.50
2022-07-26T08:27:09.571Z,1.85
2022-07-26T08:30:31.300Z,1.35
2022-07-26T08:33:53.813Z,1.77
2022-07-26T08:37:17.760Z,1.60
2022-07-26T08:40:41.159Z,1.48
2022-07-26T08:44:07.036Z,1.80
2022-07-26T08:47:37.681Z,1.77
2022-07-26T08:51:10.987Z,1.55
2022-07-26T08:54:32.644Z,1.38
2022-07-26T08:57:55.670Z,2.03
2022-07-26T09:01:18.970Z,1.63
2022-07-26T09:04:44.760Z,1.70
2022-07-26T09:08:24.375Z,1.75
2022-07-26T09:11:45.287Z,1.63
2022-07-26T09:15:20.112Z,2.00
2022-07-26T09:18:41.586Z,1.92
2022-07-26T09:22:10.464Z,1.55
2022-07-26T09:25:34.253Z,1.90
2022-07-26T09:29:11.004Z,1.45
2022-07-26T09:32:34.228Z,1.85
2022-07-26T09:36:03.418Z,0.70
2022-07-26T09:39:34.062Z,0.70
2022-07-26T09:42:57.833Z,0.50
2022-07-26T09:46:22.559Z,0.60
2022-07-26T09:49:45.678Z,0.40
2022-07-26T09:53:08.970Z,0.87
2022-07-26T09:56:43.615Z,0.90
2022-07-26T10:00:07.779Z,0.90
2022-07-26T10:03:33.426Z,0.60
2022-07-26T10:06:58.772Z,1.17
2022-07-26T10:10:24.879Z,0.63
2022-07-26T10:24:43.643Z,0.77
2022-07-26T10:29:07.416Z,0.50
2022-07-26T10:48:18.966Z,0.77
2022-07-26T10:52:23.553Z,0.90
2022-07-26T10:56:41.897Z,0.70
2022-07-26T11:01:04.438Z,1.03
2022-07-26T11:18:13.730Z,1.05
2022-07-26T11:21:36.378Z,1.13
2022-07-26T11:24:57.399Z,1.98
2022-07-26T11:28:18.491Z,1.45
2022-07-26T11:31:50.582Z,1.33
2022-07-26T11:35:30.020Z,1.07
2022-07-26T11:38:54.724Z,0.90
2022-07-26T11:42:19.462Z,0.60
2022-07-26T11:45:44.088Z,0.50
2022-07-26T11:49:13.654Z,0.40
2022-07-26T11:52:35.175Z,0.80
2022-07-26T11:56:10.995Z,0.50
2022-07-26T11:59:34.096Z,0.60
2022-07-26T12:02:56.131Z,0.50
2022-07-26T12:06:19.106Z,1.00
2022-07-26T12:09:48.165Z,0.47
2022-07-26T12:13:14.350Z,0.45
2022-07-26T12:16:40.885Z,0.57
2022-07-26T12:20:11.803Z,0.50
2022-07-26T12:23:42.321Z,0.40
2022-07-26T12:27:08.695Z,0.40
2022-07-26T12:30:36.710Z,0.43
2022-07-26T12:33:58.779Z,0.50
2022-07-26T12:37:20.395Z,0.50
2022-07-26T12:40:43.404Z,0.38
2022-07-26T12:44:05.591Z,0.30
2022-07-26T12:47:28.881Z,0.40
2022-07-26T12:50:50.106Z,0.20
2022-07-26T12:54:12.509Z,0.20
2022-07-26T12:57:34.152Z,0.30
2022-07-26T13:00:58.756Z,0.10
2022-07-26T13:04:21.689Z,0.40
2022-07-26T13:07:43.584Z,0.22
2022-07-26T13:11:04.739Z,0.40
2022-07-26T13:14:25.960Z,0.50
2022-07-26T13:17:47.000Z,0.57
2022-07-26T13:21:09.448Z,0.60
2022-07-26T13:24:31.575Z,0.55
2022-07-26T13:27:53.836Z,0.50
2022-07-26T13:31:16.315Z,0.22
2022-07-26T13:34:37.769Z,0.50
2022-07-26T13:38:00.085Z,0.30
2022-07-26T13:41:21.102Z,0.35
2022-07-26T13:44:42.638Z,0.40
2022-07-26T13:48:04.266Z,0.20
2022-07-26T13:51:46.863Z,0.35
2022-07-26T13:55:10.424Z,0.30
2022-07-26T13:58:32.546Z,0.30
2022-07-26T14:01:55.350Z,0.40
2022-07-26T14:05:16.747Z,0.30
2022-07-26T14:08:37.773Z,0.25
2022-07-26T14:12:01.345Z,0.50
2022-07-26T14:15:23.570Z,0.30
2022-07-26T14:18:45.100Z,0.55
2022-07-26T14:22:08.086Z,0.50
2022-07-26T14:25:30.258Z,0.30
2022-07-26T14:28:56.440Z,0.40
2022-07-26T14:32:21.805Z,0.30
2022-07-26T14:35:44.824Z,0.40
2022-07-26T14:39:06.240Z,0.20
2022-07-26T14:42:27.545Z,0.55
2022-07-26T14:45:50.423Z,0.30
2022-07-26T14:49:12.189Z,0.80
2022-07-26T14:52:33.950Z,0.63
2022-07-26T14:55:55.502Z,0.55
2022-07-26T14:59:16.917Z,0.40
2022-07-26T15:02:41.203Z,0.45
2022-07-26T15:06:02.945Z,0.38
2022-07-26T15:09:23.876Z,0.40
2022-07-26T15:12:45.390Z,0.45
2022-07-26T15:16:06.957Z,0.20
2022-07-26T15:19:33.218Z,0.55
2022-07-26T15:22:56.929Z,0.93
2022-07-26T15:26:18.551Z,0.47
2022-07-26T15:29:40.110Z,0.30
2022-07-26T15:33:04.511Z,0.43
2022-07-26T15:36:27.344Z,0.65
2022-07-26T15:39:49.767Z,0.40
2022-07-26T15:43:13.204Z,0.50
2022-07-26T15:46:37.341Z,0.47
2022-07-26T15:49:59.878Z,0.32
2022-07-26T15:53:25.431Z,0.30
2022-07-26T15:56:48.266Z,0.60
2022-07-26T16:00:12.256Z,0.50
2022-07-26T16:03:36.203Z,0.30
2022-07-26T16:06:59.293Z,0.30
2022-07-26T16:10:22.390Z,0.20
2022-07-26T16:13:44.108Z,0.47
2022-07-26T16:17:05.324Z,0.82
2022-07-26T16:20:26.585Z,0.40
2022-07-26T16:23:48.281Z,0.90
2022-07-26T16:27:11.197Z,0.43
2022-07-26T16:30:33.024Z,0.65
2022-07-26T16:33:54.911Z,1.00
2022-07-26T16:37:16.182Z,0.70
2022-07-26T16:40:37.298Z,0.52
2022-07-26T16:44:01.933Z,0.50
2022-07-26T16:47:23.987Z,0.70
2022-07-26T16:50:46.402Z,0.45
2022-07-26T16:54:07.488Z,0.70
2022-07-26T16:57:29.142Z,0.57
2022-07-26T17:00:52.068Z,0.67
2022-07-26T17:04:16.543Z,0.50
2022-07-26T17:07:38.316Z,0.73
2022-07-26T17:11:00.041Z,0.73
2022-07-26T17:14:21.901Z,0.97
2022-07-26T17:17:48.517Z,0.70
2022-07-26T17:21:11.726Z,1.10
2022-07-26T17:24:33.803Z,0.50
2022-07-26T17:27:56.206Z,0.65
2022-07-26T17:31:17.671Z,0.85
2022-07-26T17:34:41.928Z,1.00
2022-07-26T17:38:07.394Z,0.90
2022-07-26T17:41:33.012Z,1.15
2022-07-26T17:44:56.340Z,1.30
2022-07-26T17:48:24.877Z,1.60
2022-07-26T17:51:55.654Z,1.52
2022-07-26T17:55:18.286Z,1.30
2022-07-26T17:58:42.439Z,1.40
2022-07-26T18:02:04.834Z,1.17
2022-07-26T18:05:33.947Z,1.00
2022-07-26T18:08:58.409Z,1.30
2022-07-26T18:12:21.044Z,0.97
2022-07-26T18:15:43.131Z,1.17
2022-07-26T18:19:04.972Z,1.60
2022-07-26T18:22:27.423Z,0.93
2022-07-26T18:25:50.325Z,1.37
2022-07-26T18:29:12.884Z,0.90
2022-07-26T18:32:35.065Z,0.90
2022-07-26T18:36:00.849Z,1.00
2022-07-26T18:39:23.184Z,0.90
2022-07-26T18:42:45.916Z,1.00
2022-07-26T18:46:09.407Z,0.90
2022-07-26T18:49:32.443Z,0.93
2022-07-26T18:52:54.160Z,0.97
2022-07-26T18:56:15.764Z,0.60
2022-07-26T18:59:39.646Z,0.90
2022-07-26T19:03:01.153Z,0.73
2022-07-26T19:06:26.708Z,0.80
2022-07-26T19:09:49.289Z,0.97
2022-07-26T19:13:12.914Z,0.90
2022-07-26T19:16:36.793Z,1.10
2022-07-26T19:19:58.482Z,0.87
2022-07-26T19:23:20.171Z,1.23
2022-07-26T19:26:48.128Z,1.50
2022-07-26T19:30:16.569Z,0.90
2022-07-26T19:33:40.062Z,1.40
2022-07-26T19:37:01.689Z,1.27
2022-07-26T19:40:23.982Z,1.13
2022-07-26T19:43:45.561Z,1.20
2022-07-26T19:47:06.600Z,1.00
2022-07-26T19:50:35.310Z,1.03
2022-07-26T19:54:00.829Z,0.87
2022-07-26T19:57:29.469Z,0.70
2022-07-26T20:00:51.122Z,0.80
2022-07-26T20:04:12.602Z,0.67
2022-07-26T20:07:37.261Z,0.77
2022-07-26T20:10:59.279Z,0.63
2022-07-26T20:14:22.895Z,0.70
2022-07-26T20:17:44.318Z,0.60
2022-07-26T20:21:05.848Z,1.10
2022-07-26T20:24:28.664Z,1.03
2022-07-26T20:27:51.460Z,0.87
2022-07-26T20:31:15.784Z,0.90
2022-07-26T20:34:37.270Z,1.10
2022-07-26T20:38:18.137Z,1.40
2022-07-26T20:41:45.815Z,0.70
2022-07-26T20:45:11.156Z,0.90
2022-07-26T20:48:33.874Z,1.03
2022-07-26T20:51:55.052Z,0.67
2022-07-26T20:55:18.829Z,0.83
2022-07-26T20:58:43.286Z,0.70
2022-07-26T21:02:06.085Z,0.47
2022-07-26T21:05:32.159Z,0.83
2022-07-26T21:08:53.562Z,0.70
2022-07-26T21:12:21.637Z,1.57
2022-07-26T21:15:44.017Z,0.90
2022-07-26T21:19:06.327Z,0.60
2022-07-26T21:22:29.700Z,1.00
2022-07-26T21:25:57.902Z,0.77
2022-07-26T21:29:22.057Z,0.80
2022-07-26T21:32:45.607Z,0.90
2022-07-26T21:36:07.111Z,1.30
2022-07-26T21:39:28.418Z,0.80
2022-07-26T21:42:52.005Z,0.60
2022-07-26T21:46:13.891Z,1.57
2022-07-26T21:49:38.659Z,0.90
2022-07-26T21:53:01.110Z,0.80
2022-07-26T21:56:22.551Z,0.97
2022-07-26T21:59:43.714Z,0.97
2022-07-26T22:03:05.193Z,0.97
2022-07-26T22:06:27.379Z,0.57
2022-07-26T22:09:49.421Z,0.80
2022-07-26T22:13:10.985Z,0.40
2022-07-26T22:16:32.158Z,0.40
2022-07-26T22:19:53.377Z,1.10
2022-07-26T22:23:19.961Z,1.10
2022-07-26T22:26:42.845Z,1.30
2022-07-26T22:30:05.046Z,1.03
2022-07-26T22:33:26.674Z,1.00
2022-07-26T22:36:48.299Z,0.60
2022-07-26T22:40:13.112Z,0.50
2022-07-26T22:43:35.265Z,1.00
2022-07-26T22:46:56.731Z,0.80
2022-07-26T22:50:18.732Z,0.80
2022-07-26T22:53:40.303Z,0.87
2022-07-26T22:57:02.954Z,0.93
2022-07-26T23:00:24.265Z,0.63
2022-07-26T23:03:49.797Z,0.50
2022-07-26T23:07:11.999Z,0.80
2022-07-26T23:10:33.961Z,0.57
2022-07-26T23:13:58.774Z,0.67
2022-07-26T23:17:20.944Z,1.50
2022-07-26T23:20:43.108Z,0.47
2022-07-26T23:24:04.377Z,0.67
2022-07-26T23:27:25.787Z,0.57
2022-07-26T23:30:48.192Z,0.80
2022-07-26T23:34:09.357Z,0.50
2022-07-26T23:37:30.827Z,0.60
2022-07-26T23:40:52.423Z,1.20
2022-07-26T23:44:13.978Z,0.53
2022-07-26T23:47:36.874Z,1.00
2022-07-26T23:50:58.092Z,0.50
2022-07-26T23:54:19.481Z,0.60
2022-07-26T23:57:41.313Z,0.70
